createdAt,value
2023-05-01T00:00:44.430Z,243.36
2023-05-01T00:01:44.394Z,242.49
2023-05-01T00:02:44.461Z,241.99
2023-05-01T00:03:44.509Z,243.78
2023-05-01T00:04:44.343Z,243.82
2023-05-01T00:05:44.325Z,243.80
2023-05-01T00:06:44.360Z,242.75
2023-05-01T00:07:44.265Z,241.22
2023-05-01T00:08:44.234Z,243.07
2023-05-01T00:09:44.202Z,243.76
2023-05-01T00:10:44.170Z,242.84
2023-05-01T00:11:44.141Z,242.93
2023-05-01T00:12:44.120Z,243.24
2023-05-01T00:13:44.113Z,243.34
2023-05-01T00:14:44.063Z,242.99
2023-05-01T00:15:44.038Z,242.40
2023-05-01T00:16:44.068Z,244.74
2023-05-01T00:17:43.989Z,242.19
2023-05-01T00:18:43.950Z,243.03
2023-05-01T00:19:43.909Z,242.16
2023-05-01T00:20:43.886Z,242.43
2023-05-01T00:21:43.848Z,242.22
2023-05-01T00:22:43.823Z,241.31
2023-05-01T00:23:43.791Z,241.93
2023-05-01T00:24:43.768Z,241.73
2023-05-01T00:25:43.732Z,241.16
2023-05-01T00:26:43.720Z,241.58
2023-05-01T00:27:43.691Z,242.52
2023-05-01T00:28:43.667Z,240.63
2023-05-01T00:29:43.637Z,242.67
2023-05-01T00:30:43.604Z,241.24
2023-05-01T00:31:43.619Z,240.09
2023-05-01T00:32:43.583Z,240.53
2023-05-01T00:33:43.520Z,241.59
2023-05-01T00:34:43.494Z,241.60
2023-05-01T00:35:43.473Z,241.85
2023-05-01T00:36:43.451Z,240.95
2023-05-01T00:37:43.414Z,241.48
2023-05-01T00:38:43.384Z,241.55
2023-05-01T00:39:43.352Z,241.86
2023-05-01T00:40:43.341Z,241.02
2023-05-01T00:41:43.304Z,240.29
2023-05-01T00:42:43.279Z,241.83
2023-05-01T00:43:43.248Z,241.00
2023-05-01T00:44:43.222Z,241.59
2023-05-01T00:45:43.258Z,241.67
2023-05-01T00:46:43.183Z,241.04
2023-05-01T00:47:43.197Z,241.56
2023-05-01T00:48:43.128Z,241.16
2023-05-01T00:49:43.110Z,241.62
2023-05-01T00:50:43.112Z,240.30
2023-05-01T00:51:43.098Z,241.36
2023-05-01T00:52:43.059Z,241.43
2023-05-01T00:53:43.020Z,241.59
2023-05-01T00:54:42.993Z,240.67
2023-05-01T00:55:43.000Z,242.12
2023-05-01T00:56:42.949Z,242.47
2023-05-01T00:57:42.934Z,242.72
2023-05-01T00:58:42.892Z,242.62
2023-05-01T00:59:42.864Z,241.26
2023-05-01T01:00:42.844Z,241.72
2023-05-01T01:01:42.892Z,241.99
2023-05-01T01:02:42.823Z,240.25
2023-05-01T01:03:42.782Z,241.63
2023-05-01T01:04:42.805Z,241.64
2023-05-01T01:05:42.701Z,241.73
2023-05-01T01:06:42.818Z,241.91
2023-05-01T01:07:42.657Z,241.80
2023-05-01T01:08:42.621Z,241.80
2023-05-01T01:09:42.584Z,243.58
2023-05-01T01:10:42.590Z,241.78
2023-05-01T01:11:42.535Z,240.86
2023-05-01T01:12:42.520Z,240.57
2023-05-01T01:13:42.510Z,240.00
2023-05-01T01:14:42.475Z,240.45
2023-05-01T01:15:42.443Z,240.78
2023-05-01T01:16:42.427Z,240.19
2023-05-01T01:17:42.432Z,241.08
2023-05-01T01:18:42.359Z,239.71
2023-05-01T01:19:42.340Z,239.97
2023-05-01T01:20:42.340Z,240.44
2023-05-01T01:21:42.289Z,240.92
2023-05-01T01:22:42.279Z,240.70
2023-05-01T01:23:42.274Z,239.68
2023-05-01T01:24:42.251Z,239.73
2023-05-01T01:25:42.184Z,240.30
2023-05-01T01:26:42.150Z,240.92
2023-05-01T01:27:42.121Z,241.05
2023-05-01T01:28:42.092Z,239.71
2023-05-01T01:29:42.060Z,241.25
2023-05-01T01:30:42.075Z,239.94
2023-05-01T01:31:42.068Z,240.64
2023-05-01T01:32:42.006Z,240.81
2023-05-01T01:33:41.942Z,240.31
2023-05-01T01:34:41.922Z,239.75
2023-05-01T01:35:41.908Z,239.82
2023-05-01T01:36:41.895Z,239.45
2023-05-01T01:37:41.899Z,237.70
2023-05-01T01:38:41.932Z,240.76
2023-05-01T01:39:41.879Z,240.47
2023-05-01T01:40:41.884Z,240.34
2023-05-01T01:41:41.873Z,239.46
2023-05-01T01:42:41.869Z,238.85
2023-05-01T01:43:41.869Z,240.28
2023-05-01T01:44:41.865Z,239.43
2023-05-01T01:45:41.850Z,239.15
2023-05-01T01:46:41.864Z,239.81
2023-05-01T01:47:41.996Z,239.24
2023-05-01T01:48:41.847Z,238.89
2023-05-01T01:49:41.831Z,239.82
2023-05-01T01:50:41.833Z,239.20
2023-05-01T01:51:41.821Z,237.70
2023-05-01T01:52:41.830Z,237.34
2023-05-01T01:53:41.827Z,237.50
2023-05-01T01:54:41.825Z,240.18
2023-05-01T01:55:41.823Z,236.40
2023-05-01T01:56:41.818Z,237.96
2023-05-01T01:57:41.811Z,238.44
2023-05-01T01:58:41.815Z,238.23
2023-05-01T01:59:41.808Z,238.10
2023-05-01T02:00:41.879Z,237.99
2023-05-01T02:01:41.926Z,238.95
2023-05-01T02:02:41.882Z,236.82
2023-05-01T02:03:41.912Z,237.70
2023-05-01T02:04:41.821Z,237.39
2023-05-01T02:05:41.812Z,237.26
2023-05-01T02:06:41.861Z,236.53
2023-05-01T02:07:41.820Z,237.10
2023-05-01T02:08:41.812Z,236.58
2023-05-01T02:09:41.810Z,237.89
2023-05-01T02:10:41.827Z,237.42
2023-05-01T02:11:41.809Z,236.84
2023-05-01T02:12:41.828Z,237.83
2023-05-01T02:13:41.827Z,236.10
2023-05-01T02:14:41.802Z,236.96
2023-05-01T02:15:41.849Z,236.49
2023-05-01T02:16:41.955Z,236.16
2023-05-01T02:17:41.816Z,236.71
2023-05-01T02:18:41.815Z,234.83
2023-05-01T02:19:41.871Z,234.84
2023-05-01T02:20:41.826Z,235.98
2023-05-01T02:21:41.815Z,235.65
2023-05-01T02:22:41.804Z,235.22
2023-05-01T02:23:41.809Z,235.00
2023-05-01T02:24:41.795Z,234.66
2023-05-01T02:25:41.820Z,234.36
2023-05-01T02:26:41.808Z,234.02
2023-05-01T02:27:41.842Z,235.75
2023-05-01T02:28:41.807Z,235.07
2023-05-01T02:29:41.834Z,234.46
2023-05-01T02:30:41.824Z,235.04
2023-05-01T02:31:41.867Z,235.85
2023-05-01T02:32:41.863Z,232.29
2023-05-01T02:33:41.815Z,233.66
2023-05-01T02:34:41.823Z,234.77
2023-05-01T02:35:41.850Z,233.40
2023-05-01T02:36:41.836Z,235.11
2023-05-01T02:37:41.822Z,235.95
2023-05-01T02:38:41.837Z,233.25
2023-05-01T02:39:41.950Z,233.27
2023-05-01T02:40:41.849Z,234.13
2023-05-01T02:41:41.849Z,233.79
2023-05-01T02:42:41.852Z,233.75
2023-05-01T02:43:41.843Z,234.10
2023-05-01T02:44:41.868Z,233.67
2023-05-01T02:45:41.869Z,233.64
2023-05-01T02:46:41.846Z,232.78
2023-05-01T02:47:41.863Z,234.60
2023-05-01T02:48:41.844Z,233.69
2023-05-01T02:49:41.843Z,234.90
2023-05-01T02:50:41.848Z,233.48
2023-05-01T02:51:41.856Z,234.04
2023-05-01T02:52:41.854Z,233.31
2023-05-01T02:53:41.869Z,233.07
2023-05-01T02:54:41.875Z,233.06
2023-05-01T02:55:41.861Z,233.15
2023-05-01T02:56:41.842Z,233.41
2023-05-01T02:57:41.812Z,233.35
2023-05-01T02:58:41.783Z,233.23
2023-05-01T02:59:41.762Z,233.63
2023-05-01T03:00:41.730Z,230.70
2023-05-01T03:01:41.796Z,214.09
2023-05-01T03:02:41.723Z,196.73
2023-05-01T03:03:41.760Z,177.69
2023-05-01T03:04:41.741Z,157.80
2023-05-01T03:05:41.642Z,141.19
2023-05-01T03:06:41.786Z,122.56
2023-05-01T03:07:41.570Z,105.44
2023-05-01T03:08:41.551Z,86.56
2023-05-01T03:09:41.528Z,67.41
2023-05-01T03:10:41.522Z,51.55
2023-05-01T03:11:41.543Z,34.45
2023-05-01T03:12:41.470Z,23.28
2023-05-01T03:13:41.490Z,24.32
2023-05-01T03:14:41.489Z,23.81
2023-05-01T03:15:41.512Z,25.00
2023-05-01T03:16:41.660Z,24.76
2023-05-01T03:17:41.575Z,24.47
2023-05-01T03:18:41.566Z,25.20
2023-05-01T03:19:41.567Z,25.00
2023-05-01T03:20:41.556Z,25.00
2023-05-01T03:21:41.565Z,25.21
2023-05-01T03:22:41.546Z,25.00
2023-05-01T03:23:41.537Z,25.00
2023-05-01T03:24:41.530Z,25.00
2023-05-01T03:25:41.524Z,25.01
2023-05-01T03:26:41.538Z,25.61
2023-05-01T03:27:41.517Z,25.00
2023-05-01T03:28:41.512Z,25.00
2023-05-01T03:29:41.518Z,25.17
2023-05-01T03:30:41.521Z,25.00
2023-05-01T03:31:41.558Z,25.06
2023-05-01T03:32:41.549Z,25.84
2023-05-01T03:33:41.534Z,25.52
2023-05-01T03:34:41.545Z,26.36
2023-05-01T03:35:41.605Z,25.30
2023-05-01T03:36:41.559Z,26.02
2023-05-01T03:37:41.549Z,24.04
2023-05-01T03:38:41.523Z,23.70
2023-05-01T03:39:41.512Z,23.92
2023-05-01T03:40:41.474Z,21.90
2023-05-01T03:41:41.470Z,22.12
2023-05-01T03:42:41.452Z,25.33
2023-05-01T03:43:41.410Z,25.77
2023-05-01T03:44:41.389Z,25.47
2023-05-01T03:45:44.254Z,25.00
2023-05-01T03:46:41.414Z,25.23
2023-05-01T03:47:41.375Z,25.04
2023-05-01T03:48:41.319Z,25.05
2023-05-01T03:49:41.297Z,26.14
2023-05-01T03:50:41.289Z,25.58
2023-05-01T03:51:41.263Z,25.49
2023-05-01T03:52:41.246Z,25.92
2023-05-01T03:53:41.215Z,26.85
2023-05-01T03:54:41.218Z,26.87
2023-05-01T03:55:41.184Z,26.61
2023-05-01T03:56:41.172Z,25.00
2023-05-01T03:57:41.158Z,25.54
2023-05-01T03:58:41.127Z,25.00
2023-05-01T03:59:41.104Z,25.21
2023-05-01T04:00:41.088Z,26.05
2023-05-01T04:01:41.116Z,25.00
2023-05-01T04:02:41.133Z,25.56
2023-05-01T04:03:41.205Z,27.07
2023-05-01T04:04:41.123Z,26.27
2023-05-01T04:05:40.997Z,25.93
2023-05-01T04:06:41.096Z,25.06
2023-05-01T04:07:40.964Z,25.11
2023-05-01T04:08:40.940Z,25.24
2023-05-01T04:09:40.918Z,25.33
2023-05-01T04:10:40.903Z,26.25
2023-05-01T04:11:40.872Z,27.33
2023-05-01T04:12:40.855Z,27.93
2023-05-01T04:13:40.844Z,26.32
2023-05-01T04:14:40.808Z,26.13
2023-05-01T04:15:40.871Z,28.05
2023-05-01T04:16:40.894Z,25.79
2023-05-01T04:17:40.897Z,25.51
2023-05-01T04:18:40.861Z,25.73
2023-05-01T04:19:40.866Z,26.85
2023-05-01T04:20:40.871Z,26.78
2023-05-01T04:21:40.887Z,29.23
2023-05-01T04:22:40.874Z,29.14
2023-05-01T04:23:40.875Z,30.26
2023-05-01T04:24:40.868Z,31.12
2023-05-01T04:25:40.899Z,30.76
2023-05-01T04:26:40.864Z,30.79
2023-05-01T04:27:40.855Z,30.81
2023-05-01T04:28:40.813Z,28.76
2023-05-01T04:29:40.804Z,28.87
2023-05-01T04:30:40.791Z,28.99
2023-05-01T04:31:40.775Z,27.96
2023-05-01T04:32:40.816Z,27.39
2023-05-01T04:33:40.724Z,27.52
2023-05-01T04:34:40.689Z,27.94
2023-05-01T04:35:40.697Z,26.93
2023-05-01T04:36:40.659Z,26.68
2023-05-01T04:37:40.660Z,26.77
2023-05-01T04:38:40.630Z,25.49
2023-05-01T04:39:40.622Z,25.82
2023-05-01T04:40:40.652Z,27.72
2023-05-01T04:41:40.672Z,25.42
2023-05-01T04:42:40.661Z,25.95
2023-05-01T04:43:40.686Z,27.35
2023-05-01T04:44:40.722Z,29.76
2023-05-01T04:45:40.738Z,28.52
2023-05-01T04:46:40.827Z,30.44
2023-05-01T04:47:40.874Z,30.94
2023-05-01T04:48:40.812Z,31.66
2023-05-01T04:49:40.819Z,30.29
2023-05-01T04:50:40.856Z,30.72
2023-05-01T04:51:40.908Z,31.54
2023-05-01T04:52:40.904Z,31.13
2023-05-01T04:53:40.901Z,32.15
2023-05-01T04:54:40.908Z,30.64
2023-05-01T04:55:40.908Z,30.47
2023-05-01T04:56:40.896Z,29.89
2023-05-01T04:57:40.900Z,29.53
2023-05-01T04:58:40.880Z,28.46
2023-05-01T04:59:40.881Z,27.07
2023-05-01T05:00:40.865Z,26.38
2023-05-01T05:01:41.003Z,25.42
2023-05-01T05:02:40.938Z,25.67
2023-05-01T05:03:40.943Z,26.28
2023-05-01T05:04:40.845Z,25.72
2023-05-01T05:05:40.844Z,25.89
2023-05-01T05:06:40.922Z,25.41
2023-05-01T05:07:40.821Z,26.05
2023-05-01T05:08:40.830Z,26.63
2023-05-01T05:09:40.811Z,25.84
2023-05-01T05:10:40.810Z,25.32
2023-05-01T05:11:40.789Z,25.32
2023-05-01T05:12:40.767Z,25.34
2023-05-01T05:13:40.758Z,24.55
2023-05-01T05:14:40.735Z,25.60
2023-05-01T05:15:40.721Z,25.71
2023-05-01T05:16:40.779Z,26.11
2023-05-01T05:17:40.726Z,26.07
2023-05-01T05:18:40.693Z,25.97
2023-05-01T05:19:40.665Z,26.25
2023-05-01T05:20:40.650Z,26.07
2023-05-01T05:21:40.661Z,25.36
2023-05-01T05:22:40.640Z,27.30
2023-05-01T05:23:40.630Z,25.28
2023-05-01T05:24:40.621Z,25.35
2023-05-01T05:25:40.602Z,26.04
2023-05-01T05:26:40.608Z,25.00
2023-05-01T05:27:40.578Z,26.06
2023-05-01T05:28:40.560Z,25.42
2023-05-01T05:29:40.576Z,25.60
2023-05-01T05:30:40.544Z,25.46
2023-05-01T05:31:40.573Z,25.21
2023-05-01T05:32:40.531Z,24.89
2023-05-01T05:33:40.517Z,25.47
2023-05-01T05:34:40.489Z,25.39
2023-05-01T05:35:40.480Z,25.41
2023-05-01T05:36:40.489Z,26.27
2023-05-01T05:37:40.460Z,25.44
2023-05-01T05:38:40.452Z,25.88
2023-05-01T05:39:40.433Z,25.26
2023-05-01T05:40:40.439Z,26.45
2023-05-01T05:41:40.429Z,25.60
2023-05-01T05:42:40.404Z,25.31
2023-05-01T05:43:40.393Z,25.74
2023-05-01T05:44:40.357Z,25.55
2023-05-01T05:45:40.406Z,26.65
2023-05-01T05:46:40.513Z,26.44
2023-05-01T05:47:40.380Z,25.60
2023-05-01T05:48:40.308Z,26.25
2023-05-01T05:49:40.305Z,25.37
2023-05-01T05:50:40.303Z,26.47
2023-05-01T05:51:40.284Z,26.08
2023-05-01T05:52:40.272Z,26.26
2023-05-01T05:53:40.274Z,26.29
2023-05-01T05:54:40.258Z,26.34
2023-05-01T05:55:40.249Z,26.72
2023-05-01T05:56:40.259Z,26.98
2023-05-01T05:57:40.224Z,28.54
2023-05-01T05:58:40.217Z,28.84
2023-05-01T05:59:40.197Z,28.30
2023-05-01T06:00:40.187Z,29.29
2023-05-01T06:01:40.189Z,28.25
2023-05-01T06:02:40.230Z,29.68
2023-05-01T06:03:40.271Z,27.31
2023-05-01T06:04:40.127Z,28.25
2023-05-01T06:05:40.240Z,28.08
2023-05-01T06:06:40.178Z,26.89
2023-05-01T06:07:40.100Z,26.96
2023-05-01T06:08:40.068Z,26.14
2023-05-01T06:09:40.073Z,26.61
2023-05-01T06:10:40.032Z,25.80
2023-05-01T06:11:40.039Z,25.89
2023-05-01T06:12:42.964Z,25.20
2023-05-01T06:13:41.004Z,25.23
2023-05-01T06:14:39.975Z,25.07
2023-05-01T06:15:39.997Z,25.24
2023-05-01T06:16:40.010Z,25.46
2023-05-01T06:17:39.985Z,25.22
2023-05-01T06:18:39.916Z,25.83
2023-05-01T06:19:39.915Z,25.65
2023-05-01T06:20:39.910Z,25.39
2023-05-01T06:21:39.891Z,25.80
2023-05-01T06:22:39.881Z,25.21
2023-05-01T06:23:39.874Z,25.77
2023-05-01T06:24:39.889Z,25.71
2023-05-01T06:25:39.837Z,25.26
2023-05-01T06:26:39.844Z,25.72
2023-05-01T06:27:39.830Z,27.08
2023-05-01T06:28:39.795Z,26.01
2023-05-01T06:29:39.799Z,25.75
2023-05-01T06:30:39.770Z,26.05
2023-05-01T06:31:39.837Z,25.84
2023-05-01T06:32:39.753Z,25.57
2023-05-01T06:33:39.743Z,25.89
2023-05-01T06:34:39.748Z,25.64
2023-05-01T06:35:39.701Z,25.33
2023-05-01T06:36:39.780Z,25.64
2023-05-01T06:37:39.719Z,26.10
2023-05-01T06:38:39.696Z,25.70
2023-05-01T06:39:39.674Z,25.51
2023-05-01T06:40:39.683Z,26.52
2023-05-01T06:41:39.644Z,25.86
2023-05-01T06:42:39.649Z,26.24
2023-05-01T06:43:39.617Z,26.38
2023-05-01T06:44:39.627Z,26.62
2023-05-01T06:45:39.612Z,27.25
2023-05-01T06:46:39.630Z,28.75
2023-05-01T06:47:39.563Z,29.28
2023-05-01T06:48:39.551Z,29.73
2023-05-01T06:49:39.529Z,29.94
2023-05-01T06:50:39.535Z,29.85
2023-05-01T06:51:39.514Z,28.88
2023-05-01T06:52:39.503Z,28.68
2023-05-01T06:53:39.493Z,31.02
2023-05-01T06:54:39.472Z,31.23
2023-05-01T06:55:39.465Z,31.14
2023-05-01T06:56:39.433Z,30.26
2023-05-01T06:57:39.436Z,31.30
2023-05-01T06:58:39.402Z,30.59
2023-05-01T06:59:39.421Z,30.19
2023-05-01T07:00:39.521Z,30.08
2023-05-01T07:01:39.398Z,30.66
2023-05-01T07:02:39.443Z,30.41
2023-05-01T07:03:39.388Z,30.61
2023-05-01T07:04:39.347Z,30.39
2023-05-01T07:05:39.308Z,29.90
2023-05-01T07:06:39.338Z,29.75
2023-05-01T07:07:42.468Z,30.83
2023-05-01T07:08:40.270Z,30.87
2023-05-01T07:09:39.246Z,30.84
2023-05-01T07:10:41.802Z,30.88
2023-05-01T07:11:39.229Z,30.85
2023-05-01T07:12:39.246Z,29.60
2023-05-01T07:13:39.202Z,30.42
2023-05-01T07:14:39.186Z,30.85
2023-05-01T07:15:39.158Z,30.79
2023-05-01T07:16:39.202Z,29.87
2023-05-01T07:17:39.151Z,29.83
2023-05-01T07:18:39.127Z,30.36
2023-05-01T07:19:39.087Z,28.09
2023-05-01T07:20:39.093Z,28.24
2023-05-01T07:21:39.065Z,28.78
2023-05-01T07:22:39.062Z,28.40
2023-05-01T07:23:39.039Z,26.99
2023-05-01T07:24:39.069Z,28.04
2023-05-01T07:25:39.005Z,26.53
2023-05-01T07:26:38.981Z,26.00
2023-05-01T07:27:39.240Z,26.05
2023-05-01T07:28:38.944Z,25.89
2023-05-01T07:29:38.943Z,25.96
2023-05-01T07:30:38.919Z,25.78
2023-05-01T07:31:38.942Z,25.14
2023-05-01T07:32:38.969Z,26.28
2023-05-01T07:33:38.866Z,26.37
2023-05-01T07:34:38.840Z,25.13
2023-05-01T07:35:38.849Z,26.20
2023-05-01T07:36:38.850Z,26.44
2023-05-01T07:37:38.810Z,27.01
2023-05-01T07:38:38.790Z,27.57
2023-05-01T07:39:38.777Z,27.87
2023-05-01T07:40:38.755Z,29.01
2023-05-01T07:41:38.746Z,29.62
2023-05-01T07:42:38.731Z,30.55
2023-05-01T07:43:38.718Z,31.58
2023-05-01T07:44:38.693Z,32.91
2023-05-01T07:45:38.694Z,32.95
2023-05-01T07:46:38.758Z,34.06
2023-05-01T07:47:38.687Z,34.04
2023-05-01T07:48:39.152Z,33.11
2023-05-01T07:49:38.603Z,32.94
2023-05-01T07:50:38.590Z,32.64
2023-05-01T07:51:38.570Z,28.84
2023-05-01T07:52:38.602Z,27.91
2023-05-01T07:53:38.556Z,25.11
2023-05-01T07:54:38.557Z,25.00
2023-05-01T07:55:38.541Z,25.86
2023-05-01T07:56:38.515Z,26.21
2023-05-01T07:57:38.480Z,26.15
2023-05-01T07:58:38.488Z,25.10
2023-05-01T07:59:38.435Z,25.00
2023-05-01T08:00:38.426Z,25.41
2023-05-01T08:01:38.403Z,25.90
2023-05-01T08:02:38.489Z,25.90
2023-05-01T08:03:38.590Z,26.43
2023-05-01T08:04:38.437Z,25.34
2023-05-01T08:05:38.449Z,25.42
2023-05-01T08:06:38.537Z,25.00
2023-05-01T08:07:38.471Z,24.81
2023-05-01T08:08:38.463Z,24.69
2023-05-01T08:09:38.462Z,25.10
2023-05-01T08:10:38.502Z,25.02
2023-05-01T08:11:38.472Z,24.93
2023-05-01T08:12:38.466Z,25.02
2023-05-01T08:13:38.464Z,26.63
2023-05-01T08:14:38.475Z,25.00
2023-05-01T08:15:38.515Z,25.14
2023-05-01T08:16:38.691Z,25.55
2023-05-01T08:17:38.593Z,25.68
2023-05-01T08:18:38.507Z,24.82
2023-05-01T08:19:38.485Z,25.16
2023-05-01T08:20:38.564Z,25.25
2023-05-01T08:21:38.514Z,25.00
2023-05-01T08:22:38.530Z,25.32
2023-05-01T08:23:38.488Z,25.00
2023-05-01T08:24:38.481Z,24.66
2023-05-01T08:25:38.456Z,24.89
2023-05-01T08:26:38.455Z,25.00
2023-05-01T08:27:38.458Z,25.49
2023-05-01T08:28:38.424Z,25.00
2023-05-01T08:29:38.398Z,25.08
2023-05-01T08:30:38.401Z,25.00
2023-05-01T08:31:38.375Z,25.00
2023-05-01T08:32:38.387Z,24.55
2023-05-01T08:33:38.328Z,25.36
2023-05-01T08:34:38.330Z,26.21
2023-05-01T08:35:38.303Z,25.43
2023-05-01T08:36:38.360Z,25.89
2023-05-01T08:37:38.301Z,25.41
2023-05-01T08:38:38.280Z,25.88
2023-05-01T08:39:38.271Z,25.17
2023-05-01T08:40:38.270Z,25.23
2023-05-01T08:41:38.257Z,26.55
2023-05-01T08:42:38.254Z,25.72
2023-05-01T08:43:38.278Z,25.55
2023-05-01T08:44:38.279Z,25.45
2023-05-01T08:45:38.381Z,25.36
2023-05-01T08:46:38.388Z,26.13
2023-05-01T08:47:38.495Z,25.25
2023-05-01T08:48:38.404Z,25.73
2023-05-01T08:49:38.397Z,25.11
2023-05-01T08:50:38.389Z,25.06
2023-05-01T08:51:38.369Z,25.15
2023-05-01T08:52:38.361Z,25.14
2023-05-01T08:53:38.330Z,25.53
2023-05-01T08:54:38.326Z,24.72
2023-05-01T08:55:38.313Z,25.95
2023-05-01T08:56:38.304Z,24.96
2023-05-01T08:57:38.290Z,26.52
2023-05-01T08:58:38.562Z,26.38
2023-05-01T08:59:38.246Z,26.81
2023-05-01T09:00:38.236Z,26.79
2023-05-01T09:01:38.326Z,27.87
2023-05-01T09:02:38.308Z,29.34
2023-05-01T09:03:38.458Z,32.54
2023-05-01T09:04:38.385Z,35.96
2023-05-01T09:05:38.415Z,40.32
2023-05-01T09:06:38.469Z,43.60
2023-05-01T09:07:38.444Z,43.70
2023-05-01T09:08:38.406Z,44.55
2023-05-01T09:09:38.384Z,47.16
2023-05-01T09:10:38.380Z,52.77
2023-05-01T09:11:38.356Z,62.70
2023-05-01T09:12:38.323Z,68.28
2023-05-01T09:13:38.295Z,72.72
2023-05-01T09:14:38.266Z,76.85
2023-05-01T09:15:38.253Z,80.50
2023-05-01T09:16:38.296Z,84.53
2023-05-01T09:17:38.206Z,87.32
2023-05-01T09:18:38.163Z,91.52
2023-05-01T09:19:38.152Z,95.76
2023-05-01T09:20:38.128Z,99.34
2023-05-01T09:21:38.103Z,102.74
2023-05-01T09:22:38.067Z,106.27
2023-05-01T09:23:38.036Z,110.42
2023-05-01T09:24:38.045Z,114.32
2023-05-01T09:25:38.005Z,118.02
2023-05-01T09:26:37.973Z,120.80
2023-05-01T09:27:37.945Z,123.64
2023-05-01T09:28:37.935Z,127.13
2023-05-01T09:29:37.946Z,131.06
2023-05-01T09:30:37.892Z,133.11
2023-05-01T09:31:37.898Z,136.93
2023-05-01T09:32:38.262Z,139.88
2023-05-01T09:33:37.814Z,142.06
2023-05-01T09:34:37.813Z,145.18
2023-05-01T09:35:37.882Z,147.21
2023-05-01T09:36:37.857Z,150.10
2023-05-01T09:37:37.880Z,152.67
2023-05-01T09:38:37.915Z,155.00
2023-05-01T09:39:37.953Z,158.38
2023-05-01T09:40:37.990Z,160.05
2023-05-01T09:41:38.024Z,162.64
2023-05-01T09:42:38.041Z,166.23
2023-05-01T09:43:38.065Z,168.24
2023-05-01T09:44:38.080Z,170.67
2023-05-01T09:45:38.153Z,173.52
2023-05-01T09:46:38.209Z,175.16
2023-05-01T09:47:38.252Z,177.99
2023-05-01T09:48:38.281Z,179.88
2023-05-01T09:49:38.316Z,182.27
2023-05-01T09:50:38.355Z,182.54
2023-05-01T09:51:38.408Z,184.78
2023-05-01T09:52:38.466Z,186.32
2023-05-01T09:53:38.493Z,187.66
2023-05-01T09:54:38.581Z,189.12
2023-05-01T09:55:38.577Z,191.34
2023-05-01T09:56:38.593Z,194.55
2023-05-01T09:57:38.647Z,195.58
2023-05-01T09:58:38.683Z,196.95
2023-05-01T09:59:38.732Z,200.18
2023-05-01T10:00:38.763Z,201.24
2023-05-01T10:01:38.900Z,202.77
2023-05-01T10:02:38.920Z,202.84
2023-05-01T10:03:38.996Z,203.13
2023-05-01T10:04:38.734Z,204.13
2023-05-01T10:05:38.722Z,205.87
2023-05-01T10:06:38.974Z,209.47
2023-05-01T10:07:38.680Z,210.03
2023-05-01T10:08:38.648Z,210.36
2023-05-01T10:09:38.639Z,211.72
2023-05-01T10:10:38.610Z,213.66
2023-05-01T10:11:38.591Z,215.19
2023-05-01T10:12:38.562Z,216.07
2023-05-01T10:13:38.547Z,217.00
2023-05-01T10:14:38.569Z,217.95
2023-05-01T10:15:38.597Z,218.76
2023-05-01T10:16:38.729Z,219.74
2023-05-01T10:17:38.745Z,219.91
2023-05-01T10:18:38.705Z,220.97
2023-05-01T10:19:38.698Z,222.96
2023-05-01T10:20:38.748Z,223.74
2023-05-01T10:21:38.783Z,225.33
2023-05-01T10:22:38.787Z,226.58
2023-05-01T10:23:38.793Z,227.26
2023-05-01T10:24:38.826Z,228.73
2023-05-01T10:25:38.847Z,229.28
2023-05-01T10:26:38.861Z,229.89
2023-05-01T10:27:38.883Z,229.70
2023-05-01T10:28:38.924Z,231.08
2023-05-01T10:29:38.947Z,232.14
2023-05-01T10:30:38.948Z,233.42
2023-05-01T10:31:41.514Z,234.05
2023-05-01T10:32:39.032Z,234.89
2023-05-01T10:33:38.891Z,233.99
2023-05-01T10:34:38.877Z,235.36
2023-05-01T10:35:38.865Z,236.05
2023-05-01T10:36:38.826Z,237.26
2023-05-01T10:37:38.835Z,237.81
2023-05-01T10:38:38.776Z,237.67
2023-05-01T10:39:38.996Z,238.29
2023-05-01T10:40:38.746Z,238.21
2023-05-01T10:41:38.714Z,238.90
2023-05-01T10:42:38.674Z,238.76
2023-05-01T10:43:38.635Z,240.85
2023-05-01T10:44:38.631Z,240.73
2023-05-01T10:45:38.586Z,241.31
2023-05-01T10:46:38.596Z,242.10
2023-05-01T10:47:38.566Z,241.35
2023-05-01T10:48:38.519Z,241.03
2023-05-01T10:49:38.496Z,241.48
2023-05-01T10:50:38.475Z,242.06
2023-05-01T10:51:38.440Z,243.18
2023-05-01T10:52:38.443Z,242.97
2023-05-01T10:53:38.417Z,242.78
2023-05-01T10:54:38.379Z,243.16
2023-05-01T10:55:38.365Z,243.28
2023-05-01T10:56:38.351Z,243.99
2023-05-01T10:57:38.320Z,243.25
2023-05-01T10:58:38.278Z,242.82
2023-05-01T10:59:38.268Z,244.54
2023-05-01T11:00:38.239Z,245.62
2023-05-01T11:01:38.323Z,245.70
2023-05-01T11:02:38.247Z,246.17
2023-05-01T11:03:38.191Z,246.88
2023-05-01T11:04:38.138Z,246.80
2023-05-01T11:05:38.786Z,247.27
2023-05-01T11:06:38.305Z,248.09
2023-05-01T11:07:38.077Z,248.85
2023-05-01T11:08:38.047Z,248.17
2023-05-01T11:09:38.076Z,248.85
2023-05-01T11:10:38.012Z,249.25
2023-05-01T11:11:37.983Z,249.61
2023-05-01T11:12:37.973Z,249.98
2023-05-01T11:13:37.935Z,249.60
2023-05-01T11:14:37.918Z,250.00
2023-05-01T11:15:37.888Z,249.68
2023-05-01T11:16:38.249Z,249.35
2023-05-01T11:17:37.871Z,249.38
2023-05-01T11:18:37.804Z,248.34
2023-05-01T11:19:37.781Z,247.71
2023-05-01T11:20:37.730Z,244.70
2023-05-01T11:21:37.719Z,243.30
2023-05-01T11:22:37.681Z,242.37
2023-05-01T11:23:37.646Z,239.87
2023-05-01T11:24:37.623Z,240.61
2023-05-01T11:25:37.585Z,241.03
2023-05-01T11:26:37.554Z,240.32
2023-05-01T11:27:37.595Z,239.97
2023-05-01T11:28:37.502Z,239.55
2023-05-01T11:29:37.491Z,238.64
2023-05-01T11:30:37.453Z,236.63
2023-05-01T11:31:37.496Z,238.66
2023-05-01T11:32:37.435Z,239.90
2023-05-01T11:33:37.380Z,239.66
2023-05-01T11:34:37.364Z,240.86
2023-05-01T11:35:37.359Z,241.83
2023-05-01T11:36:37.346Z,242.83
2023-05-01T11:37:37.344Z,242.92
2023-05-01T11:38:37.330Z,243.27
2023-05-01T11:39:37.331Z,243.46
2023-05-01T11:40:37.301Z,244.28
2023-05-01T11:41:37.301Z,243.77
2023-05-01T11:42:37.324Z,245.17
2023-05-01T11:43:37.282Z,244.85
2023-05-01T11:44:37.236Z,245.86
2023-05-01T11:45:37.549Z,245.47
2023-05-01T11:46:37.233Z,247.07
2023-05-01T11:47:37.195Z,247.68
2023-05-01T11:48:37.163Z,246.70
2023-05-01T11:49:37.141Z,247.81
2023-05-01T11:50:37.137Z,248.51
2023-05-01T11:51:37.096Z,248.56
2023-05-01T11:52:37.083Z,248.50
2023-05-01T11:53:37.081Z,248.66
2023-05-01T11:54:37.090Z,249.76
2023-05-01T11:55:37.058Z,249.23
2023-05-01T11:56:37.082Z,249.17
2023-05-01T11:57:37.098Z,249.48
2023-05-01T11:58:37.087Z,249.54
2023-05-01T11:59:37.051Z,249.63
2023-05-01T12:00:37.083Z,249.82
2023-05-01T12:01:37.011Z,250.21
2023-05-01T12:02:37.074Z,251.31
2023-05-01T12:03:37.017Z,249.56
2023-05-01T12:04:36.958Z,248.74
2023-05-01T12:05:36.982Z,249.36
2023-05-01T12:06:36.933Z,248.92
2023-05-01T12:07:36.833Z,249.24
2023-05-01T12:08:36.860Z,248.76
2023-05-01T12:09:36.907Z,248.62
2023-05-01T12:10:36.925Z,249.38
2023-05-01T12:11:36.933Z,249.52
2023-05-01T12:12:36.944Z,249.01
2023-05-01T12:13:36.990Z,249.34
2023-05-01T12:14:36.990Z,249.74
2023-05-01T12:15:37.024Z,249.30
2023-05-01T12:16:37.054Z,249.07
2023-05-01T12:17:37.109Z,248.86
2023-05-01T12:18:37.090Z,249.03
2023-05-01T12:19:37.103Z,249.41
2023-05-01T12:20:37.128Z,249.82
2023-05-01T12:21:37.166Z,249.34
2023-05-01T12:22:37.205Z,248.76
2023-05-01T12:23:37.277Z,249.32
2023-05-01T12:24:37.292Z,249.81
2023-05-01T12:25:37.328Z,249.66
2023-05-01T12:26:37.358Z,249.34
2023-05-01T12:27:37.416Z,249.26
2023-05-01T12:28:37.418Z,249.82
2023-05-01T12:29:37.447Z,249.28
2023-05-01T12:30:37.478Z,249.19
2023-05-01T12:31:37.568Z,249.82
2023-05-01T12:32:37.552Z,248.80
2023-05-01T12:33:37.588Z,249.65
2023-05-01T12:34:37.600Z,249.61
2023-05-01T12:35:37.634Z,249.21
2023-05-01T12:36:37.717Z,249.77
2023-05-01T12:37:37.699Z,248.97
2023-05-01T12:38:37.748Z,249.09
2023-05-01T12:39:37.761Z,249.92
2023-05-01T12:40:37.808Z,249.62